Terminal Aerodrome Forecast
Issued by NWS Pueblo, CO

Home | Current Version | Previous Version | Text Only | Print | Product List | Glossary On
Versions: 1 2 3 4 5 6 7 8 9 10 11 12 13 14 15 16 17 18 19 20 21 22 23 24 25 26 27 28
000
FTUS45 KPUB 261733
TAFALS
TAF
KALS 261733Z 2618/2718 VRB05KT P6SM SCT120
     FM262000 35012KT P6SM VCTS SCT080CB BKN120
     FM270300 VRB05KT P6SM SCT100 BKN200
     FM271400 08007KT P6SM SCT040 BKN100=

USA.gov is the U.S. government's official web portal to all federal, state and local government web resources and services.